sensor_id;sensor_type;location;lat;lon;timestamp;P1;durP1;ratioP1;P2;durP2;ratioP2
10212;SDS011;5150;51.400;6.692;2022-07-22T00:02:55;3.85;;;2.08;;
10212;SDS011;5150;51.400;6.692;2022-07-22T00:06:19;3.40;;;1.90;;
10212;SDS011;5150;51.400;6.692;2022-07-22T00:09:42;3.25;;;1.92;;
10212;SDS011;5150;51.400;6.692;2022-07-22T00:13:05;3.33;;;2.00;;
10212;SDS011;5150;51.400;6.692;2022-07-22T00:16:29;3.22;;;2.30;;
10212;SDS011;5150;51.400;6.692;2022-07-22T00:19:52;2.30;;;2.10;;
10212;SDS011;5150;51.400;6.692;2022-07-22T00:23:16;3.38;;;2.35;;
10212;SDS011;5150;51.400;6.692;2022-07-22T00:26:40;2.40;;;2.20;;
10212;SDS011;5150;51.400;6.692;2022-07-22T00:30:03;3.05;;;1.77;;
10212;SDS011;5150;51.400;6.692;2022-07-22T00:33:26;2.28;;;1.92;;
10212;SDS011;5150;51.400;6.692;2022-07-22T00:36:49;3.28;;;1.85;;
10212;SDS011;5150;51.400;6.692;2022-07-22T00:40:14;2.28;;;1.73;;
10212;SDS011;5150;51.400;6.692;2022-07-22T00:43:50;3.25;;;1.73;;
10212;SDS011;5150;51.400;6.692;2022-07-22T00:47:16;3.35;;;2.00;;
10212;SDS011;5150;51.400;6.692;2022-07-22T00:50:39;2.13;;;1.88;;
10212;SDS011;5150;51.400;6.692;2022-07-22T00:54:03;3.33;;;2.28;;
10212;SDS011;5150;51.400;6.692;2022-07-22T00:57:28;1.60;;;1.50;;
10212;SDS011;5150;51.400;6.692;2022-07-22T01:00:51;2.35;;;1.42;;
10212;SDS011;5150;51.400;6.692;2022-07-22T01:04:14;2.08;;;1.92;;
10212;SDS011;5150;51.400;6.692;2022-07-22T01:07:38;6.13;;;2.78;;
10212;SDS011;5150;51.400;6.692;2022-07-22T01:11:08;2.10;;;1.95;;
10212;SDS011;5150;51.400;6.692;2022-07-22T01:14:33;3.25;;;1.75;;
10212;SDS011;5150;51.400;6.692;2022-07-22T01:17:56;2.90;;;1.98;;
10212;SDS011;5150;51.400;6.692;2022-07-22T01:21:21;2.25;;;1.90;;
10212;SDS011;5150;51.400;6.692;2022-07-22T01:24:44;1.50;;;1.48;;
10212;SDS011;5150;51.400;6.692;2022-07-22T01:28:07;2.38;;;1.60;;
10212;SDS011;5150;51.400;6.692;2022-07-22T01:31:30;2.28;;;2.08;;
10212;SDS011;5150;51.400;6.692;2022-07-22T01:34:53;2.85;;;2.15;;
10212;SDS011;5150;51.400;6.692;2022-07-22T01:38:18;3.90;;;2.08;;
10212;SDS011;5150;51.400;6.692;2022-07-22T01:41:42;3.72;;;2.20;;
10212;SDS011;5150;51.400;6.692;2022-07-22T01:45:07;3.72;;;2.42;;
10212;SDS011;5150;51.400;6.692;2022-07-22T01:48:31;2.20;;;2.05;;
10212;SDS011;5150;51.400;6.692;2022-07-22T01:51:54;1.92;;;1.65;;
10212;SDS011;5150;51.400;6.692;2022-07-22T01:55:18;1.75;;;1.65;;
10212;SDS011;5150;51.400;6.692;2022-07-22T01:58:41;2.55;;;1.60;;
10212;SDS011;5150;51.400;6.692;2022-07-22T02:02:05;3.75;;;2.08;;
10212;SDS011;5150;51.400;6.692;2022-07-22T02:05:28;2.35;;;1.88;;
10212;SDS011;5150;51.400;6.692;2022-07-22T02:08:56;2.97;;;1.73;;
10212;SDS011;5150;51.400;6.692;2022-07-22T02:12:48;3.47;;;1.75;;
10212;SDS011;5150;51.400;6.692;2022-07-22T02:16:11;2.35;;;2.15;;
10212;SDS011;5150;51.400;6.692;2022-07-22T02:19:41;1.85;;;1.73;;
10212;SDS011;5150;51.400;6.692;2022-07-22T02:23:06;1.70;;;1.60;;
10212;SDS011;5150;51.400;6.692;2022-07-22T02:26:29;1.88;;;1.75;;
10212;SDS011;5150;51.400;6.692;2022-07-22T02:29:54;1.80;;;1.70;;
10212;SDS011;5150;51.400;6.692;2022-07-22T02:33:17;2.30;;;2.20;;
10212;SDS011;5150;51.400;6.692;2022-07-22T02:36:40;1.92;;;1.83;;
10212;SDS011;5150;51.400;6.692;2022-07-22T02:40:04;3.40;;;2.15;;
10212;SDS011;5150;51.400;6.692;2022-07-22T02:43:29;4.47;;;2.10;;
10212;SDS011;5150;51.400;6.692;2022-07-22T02:46:53;1.73;;;1.60;;
10212;SDS011;5150;51.400;6.692;2022-07-22T02:50:22;1.60;;;1.50;;
10212;SDS011;5150;51.400;6.692;2022-07-22T02:53:46;3.75;;;1.65;;
10212;SDS011;5150;51.400;6.692;2022-07-22T02:57:09;3.30;;;2.15;;
10212;SDS011;5150;51.400;6.692;2022-07-22T03:00:33;4.88;;;2.00;;
10212;SDS011;5150;51.400;6.692;2022-07-22T03:04:00;4.15;;;2.00;;
10212;SDS011;5150;51.400;6.692;2022-07-22T03:07:27;1.95;;;1.80;;
10212;SDS011;5150;51.400;6.692;2022-07-22T03:10:50;2.30;;;2.10;;
10212;SDS011;5150;51.400;6.692;2022-07-22T03:14:15;2.20;;;1.50;;
10212;SDS011;5150;51.400;6.692;2022-07-22T03:17:39;2.40;;;1.70;;
10212;SDS011;5150;51.400;6.692;2022-07-22T03:21:04;2.22;;;1.65;;
10212;SDS011;5150;51.400;6.692;2022-07-22T03:24:27;2.45;;;1.90;;
10212;SDS011;5150;51.400;6.692;2022-07-22T03:27:50;2.30;;;1.73;;
10212;SDS011;5150;51.400;6.692;2022-07-22T03:31:13;4.45;;;2.47;;
10212;SDS011;5150;51.400;6.692;2022-07-22T03:34:37;2.67;;;1.58;;
10212;SDS011;5150;51.400;6.692;2022-07-22T03:38:03;1.80;;;1.70;;
10212;SDS011;5150;51.400;6.692;2022-07-22T03:41:28;1.80;;;1.70;;
10212;SDS011;5150;51.400;6.692;2022-07-22T03:44:51;1.33;;;1.33;;
10212;SDS011;5150;51.400;6.692;2022-07-22T03:48:14;2.47;;;1.85;;
10212;SDS011;5150;51.400;6.692;2022-07-22T03:51:37;2.50;;;1.40;;
10212;SDS011;5150;51.400;6.692;2022-07-22T03:55:02;2.17;;;1.98;;
10212;SDS011;5150;51.400;6.692;2022-07-22T03:58:26;1.77;;;1.65;;
10212;SDS011;5150;51.400;6.692;2022-07-22T04:01:49;1.85;;;1.63;;
10212;SDS011;5150;51.400;6.692;2022-07-22T04:05:13;2.72;;;1.67;;
10212;SDS011;5150;51.400;6.692;2022-07-22T04:08:37;2.15;;;2.00;;
10212;SDS011;5150;51.400;6.692;2022-07-22T04:12:02;3.33;;;1.70;;
10212;SDS011;5150;51.400;6.692;2022-07-22T04:15:32;1.95;;;1.58;;
10212;SDS011;5150;51.400;6.692;2022-07-22T04:18:56;1.67;;;1.58;;
10212;SDS011;5150;51.400;6.692;2022-07-22T04:22:36;2.17;;;1.52;;
10212;SDS011;5150;51.400;6.692;2022-07-22T04:25:59;2.47;;;2.00;;
10212;SDS011;5150;51.400;6.692;2022-07-22T04:29:25;1.88;;;1.73;;
10212;SDS011;5150;51.400;6.692;2022-07-22T04:32:48;1.85;;;1.75;;
10212;SDS011;5150;51.400;6.692;2022-07-22T04:36:11;1.80;;;1.70;;
10212;SDS011;5150;51.400;6.692;2022-07-22T04:39:35;1.63;;;1.52;;
10212;SDS011;5150;51.400;6.692;2022-07-22T04:42:59;5.30;;;1.75;;
10212;SDS011;5150;51.400;6.692;2022-07-22T04:46:24;2.33;;;1.60;;
10212;SDS011;5150;51.400;6.692;2022-07-22T04:49:49;1.48;;;1.38;;
10212;SDS011;5150;51.400;6.692;2022-07-22T04:53:12;2.17;;;1.40;;
10212;SDS011;5150;51.400;6.692;2022-07-22T04:56:35;1.80;;;1.65;;
10212;SDS011;5150;51.400;6.692;2022-07-22T04:59:58;2.88;;;1.60;;
10212;SDS011;5150;51.400;6.692;2022-07-22T05:03:25;3.15;;;1.80;;
10212;SDS011;5150;51.400;6.692;2022-07-22T05:06:48;3.90;;;1.90;;
10212;SDS011;5150;51.400;6.692;2022-07-22T05:10:12;2.47;;;1.52;;
10212;SDS011;5150;51.400;6.692;2022-07-22T05:13:41;2.05;;;1.70;;
10212;SDS011;5150;51.400;6.692;2022-07-22T05:17:08;2.00;;;1.63;;
10212;SDS011;5150;51.400;6.692;2022-07-22T05:20:47;3.15;;;1.70;;
10212;SDS011;5150;51.400;6.692;2022-07-22T05:24:10;3.15;;;1.85;;
10212;SDS011;5150;51.400;6.692;2022-07-22T05:27:34;5.10;;;1.75;;
10212;SDS011;5150;51.400;6.692;2022-07-22T05:30:57;4.53;;;1.83;;
10212;SDS011;5150;51.400;6.692;2022-07-22T05:34:21;3.83;;;2.25;;
10212;SDS011;5150;51.400;6.692;2022-07-22T05:37:49;15.32;;;4.22;;
10212;SDS011;5150;51.400;6.692;2022-07-22T05:41:12;11.13;;;3.08;;
10212;SDS011;5150;51.400;6.692;2022-07-22T05:44:35;12.02;;;2.97;;
10212;SDS011;5150;51.400;6.692;2022-07-22T05:47:58;9.77;;;2.65;;
10212;SDS011;5150;51.400;6.692;2022-07-22T05:51:23;8.77;;;2.10;;
10212;SDS011;5150;51.400;6.692;2022-07-22T05:54:47;6.20;;;3.08;;
10212;SDS011;5150;51.400;6.692;2022-07-22T05:58:10;6.93;;;2.90;;
10212;SDS011;5150;51.400;6.692;2022-07-22T06:01:34;4.28;;;2.47;;
10212;SDS011;5150;51.400;6.692;2022-07-22T06:05:10;10.13;;;2.53;;
10212;SDS011;5150;51.400;6.692;2022-07-22T06:08:53;5.53;;;2.92;;
10212;SDS011;5150;51.400;6.692;2022-07-22T06:12:18;5.13;;;2.35;;
10212;SDS011;5150;51.400;6.692;2022-07-22T06:15:41;6.22;;;2.72;;
10212;SDS011;5150;51.400;6.692;2022-07-22T06:19:06;13.82;;;3.35;;
10212;SDS011;5150;51.400;6.692;2022-07-22T06:22:29;9.90;;;3.40;;
10212;SDS011;5150;51.400;6.692;2022-07-22T06:25:52;9.27;;;2.95;;
10212;SDS011;5150;51.400;6.692;2022-07-22T06:29:21;6.25;;;2.92;;
10212;SDS011;5150;51.400;6.692;2022-07-22T06:32:44;4.22;;;2.95;;
10212;SDS011;5150;51.400;6.692;2022-07-22T06:36:16;6.53;;;2.38;;
10212;SDS011;5150;51.400;6.692;2022-07-22T06:39:40;4.15;;;2.30;;
10212;SDS011;5150;51.400;6.692;2022-07-22T06:43:09;6.68;;;2.95;;
10212;SDS011;5150;51.400;6.692;2022-07-22T06:46:53;5.07;;;2.17;;
10212;SDS011;5150;51.400;6.692;2022-07-22T06:50:17;5.07;;;2.65;;
10212;SDS011;5150;51.400;6.692;2022-07-22T06:53:40;3.47;;;2.58;;
10212;SDS011;5150;51.400;6.692;2022-07-22T06:57:09;5.15;;;2.83;;
10212;SDS011;5150;51.400;6.692;2022-07-22T07:00:32;7.60;;;2.30;;
10212;SDS011;5150;51.400;6.692;2022-07-22T07:04:22;9.63;;;3.05;;
10212;SDS011;5150;51.400;6.692;2022-07-22T07:07:46;5.30;;;2.17;;
10212;SDS011;5150;51.400;6.692;2022-07-22T07:11:10;5.93;;;2.60;;
10212;SDS011;5150;51.400;6.692;2022-07-22T07:14:33;9.30;;;2.90;;
10212;SDS011;5150;51.400;6.692;2022-07-22T07:17:56;5.88;;;2.03;;
10212;SDS011;5150;51.400;6.692;2022-07-22T07:21:21;12.00;;;3.58;;
10212;SDS011;5150;51.400;6.692;2022-07-22T07:24:44;6.90;;;2.95;;
10212;SDS011;5150;51.400;6.692;2022-07-22T07:28:08;8.18;;;2.83;;
10212;SDS011;5150;51.400;6.692;2022-07-22T07:32:09;9.98;;;2.90;;
10212;SDS011;5150;51.400;6.692;2022-07-22T07:35:33;6.80;;;2.72;;
10212;SDS011;5150;51.400;6.692;2022-07-22T07:38:58;12.77;;;2.47;;
10212;SDS011;5150;51.400;6.692;2022-07-22T07:42:22;6.63;;;2.47;;
10212;SDS011;5150;51.400;6.692;2022-07-22T07:45:45;4.78;;;3.00;;
10212;SDS011;5150;51.400;6.692;2022-07-22T07:49:08;10.55;;;3.50;;
10212;SDS011;5150;51.400;6.692;2022-07-22T07:52:31;5.65;;;2.47;;
10212;SDS011;5150;51.400;6.692;2022-07-22T07:56:01;6.45;;;2.22;;
10212;SDS011;5150;51.400;6.692;2022-07-22T07:59:24;7.22;;;2.60;;
10212;SDS011;5150;51.400;6.692;2022-07-22T08:02:54;7.32;;;2.85;;
10212;SDS011;5150;51.400;6.692;2022-07-22T08:06:21;5.10;;;2.58;;
10212;SDS011;5150;51.400;6.692;2022-07-22T08:09:45;7.97;;;2.88;;
10212;SDS011;5150;51.400;6.692;2022-07-22T08:13:19;6.47;;;1.98;;
10212;SDS011;5150;51.400;6.692;2022-07-22T08:17:12;11.25;;;3.40;;
10212;SDS011;5150;51.400;6.692;2022-07-22T08:20:35;8.55;;;3.50;;
10212;SDS011;5150;51.400;6.692;2022-07-22T08:23:58;10.60;;;4.28;;
10212;SDS011;5150;51.400;6.692;2022-07-22T08:27:22;10.70;;;3.30;;
10212;SDS011;5150;51.400;6.692;2022-07-22T08:30:46;7.72;;;3.25;;
10212;SDS011;5150;51.400;6.692;2022-07-22T08:34:09;10.88;;;2.65;;
10212;SDS011;5150;51.400;6.692;2022-07-22T08:37:32;8.00;;;2.83;;
10212;SDS011;5150;51.400;6.692;2022-07-22T08:40:56;12.57;;;3.45;;
10212;SDS011;5150;51.400;6.692;2022-07-22T08:44:27;11.60;;;3.65;;
10212;SDS011;5150;51.400;6.692;2022-07-22T08:47:53;15.00;;;4.00;;
10212;SDS011;5150;51.400;6.692;2022-07-22T08:51:35;22.77;;;4.25;;
10212;SDS011;5150;51.400;6.692;2022-07-22T08:55:24;19.35;;;4.60;;
10212;SDS011;5150;51.400;6.692;2022-07-22T08:58:47;21.02;;;5.75;;
10212;SDS011;5150;51.400;6.692;2022-07-22T09:02:10;11.60;;;5.40;;
10212;SDS011;5150;51.400;6.692;2022-07-22T09:05:39;6.20;;;4.35;;
10212;SDS011;5150;51.400;6.692;2022-07-22T09:09:10;6.32;;;5.45;;
10212;SDS011;5150;51.400;6.692;2022-07-22T09:12:58;7.55;;;5.55;;
10212;SDS011;5150;51.400;6.692;2022-07-22T09:16:43;6.15;;;5.55;;
10212;SDS011;5150;51.400;6.692;2022-07-22T09:20:34;8.40;;;6.47;;
10212;SDS011;5150;51.400;6.692;2022-07-22T09:24:28;8.15;;;6.00;;
10212;SDS011;5150;51.400;6.692;2022-07-22T09:28:22;7.57;;;5.13;;
10212;SDS011;5150;51.400;6.692;2022-07-22T09:32:06;6.93;;;4.72;;
10212;SDS011;5150;51.400;6.692;2022-07-22T09:35:42;7.03;;;4.80;;
10212;SDS011;5150;51.400;6.692;2022-07-22T09:39:23;6.85;;;5.28;;
10212;SDS011;5150;51.400;6.692;2022-07-22T09:42:51;7.70;;;6.20;;
10212;SDS011;5150;51.400;6.692;2022-07-22T09:46:15;8.55;;;6.22;;
10212;SDS011;5150;51.400;6.692;2022-07-22T09:49:57;6.18;;;4.25;;
10212;SDS011;5150;51.400;6.692;2022-07-22T09:53:35;6.10;;;4.88;;
10212;SDS011;5150;51.400;6.692;2022-07-22T09:57:08;5.47;;;4.50;;
10212;SDS011;5150;51.400;6.692;2022-07-22T10:00:32;9.32;;;5.20;;
10212;SDS011;5150;51.400;6.692;2022-07-22T10:03:56;7.32;;;4.68;;
10212;SDS011;5150;51.400;6.692;2022-07-22T10:07:20;8.40;;;5.57;;
10212;SDS011;5150;51.400;6.692;2022-07-22T10:10:44;7.03;;;5.10;;
10212;SDS011;5150;51.400;6.692;2022-07-22T10:14:07;12.85;;;6.25;;
10212;SDS011;5150;51.400;6.692;2022-07-22T10:17:33;12.02;;;6.07;;
10212;SDS011;5150;51.400;6.692;2022-07-22T10:21:01;7.15;;;4.97;;
10212;SDS011;5150;51.400;6.692;2022-07-22T10:24:29;7.50;;;6.13;;
10212;SDS011;5150;51.400;6.692;2022-07-22T10:27:54;10.45;;;5.65;;
10212;SDS011;5150;51.400;6.692;2022-07-22T10:31:19;16.88;;;5.60;;
10212;SDS011;5150;51.400;6.692;2022-07-22T10:34:55;18.42;;;6.20;;
10212;SDS011;5150;51.400;6.692;2022-07-22T10:39:01;9.52;;;6.32;;
10212;SDS011;5150;51.400;6.692;2022-07-22T10:42:32;11.57;;;5.57;;
10212;SDS011;5150;51.400;6.692;2022-07-22T10:46:33;6.05;;;5.45;;
10212;SDS011;5150;51.400;6.692;2022-07-22T10:54:03;6.75;;;5.32;;
10212;SDS011;5150;51.400;6.692;2022-07-22T10:57:29;10.15;;;5.78;;
10212;SDS011;5150;51.400;6.692;2022-07-22T11:00:58;10.35;;;6.10;;
10212;SDS011;5150;51.400;6.692;2022-07-22T11:04:23;8.13;;;6.15;;
10212;SDS011;5150;51.400;6.692;2022-07-22T11:07:49;9.52;;;5.68;;
10212;SDS011;5150;51.400;6.692;2022-07-22T11:11:12;7.78;;;5.50;;
10212;SDS011;5150;51.400;6.692;2022-07-22T11:14:38;10.13;;;5.97;;
10212;SDS011;5150;51.400;6.692;2022-07-22T11:18:01;9.15;;;5.40;;
10212;SDS011;5150;51.400;6.692;2022-07-22T11:21:25;8.43;;;5.55;;
10212;SDS011;5150;51.400;6.692;2022-07-22T11:24:51;9.15;;;5.30;;
10212;SDS011;5150;51.400;6.692;2022-07-22T11:28:14;7.95;;;5.57;;
10212;SDS011;5150;51.400;6.692;2022-07-22T11:31:37;7.80;;;5.65;;
10212;SDS011;5150;51.400;6.692;2022-07-22T11:35:01;8.88;;;5.32;;
10212;SDS011;5150;51.400;6.692;2022-07-22T11:38:24;6.63;;;5.20;;
10212;SDS011;5150;51.400;6.692;2022-07-22T11:42:02;10.48;;;5.68;;
10212;SDS011;5150;51.400;6.692;2022-07-22T11:45:26;6.05;;;5.45;;
10212;SDS011;5150;51.400;6.692;2022-07-22T11:48:49;7.68;;;4.95;;
10212;SDS011;5150;51.400;6.692;2022-07-22T11:52:12;8.82;;;5.22;;
10212;SDS011;5150;51.400;6.692;2022-07-22T11:55:35;9.40;;;5.05;;
10212;SDS011;5150;51.400;6.692;2022-07-22T11:58:59;5.47;;;4.70;;
10212;SDS011;5150;51.400;6.692;2022-07-22T12:02:26;12.50;;;5.80;;
10212;SDS011;5150;51.400;6.692;2022-07-22T12:05:55;9.68;;;5.32;;
10212;SDS011;5150;51.400;6.692;2022-07-22T12:09:20;8.27;;;5.47;;
10212;SDS011;5150;51.400;6.692;2022-07-22T12:12:46;6.30;;;4.95;;
10212;SDS011;5150;51.400;6.692;2022-07-22T12:16:24;5.72;;;5.20;;
10212;SDS011;5150;51.400;6.692;2022-07-22T12:19:48;15.93;;;5.50;;
10212;SDS011;5150;51.400;6.692;2022-07-22T12:23:11;8.13;;;4.72;;
10212;SDS011;5150;51.400;6.692;2022-07-22T12:26:38;11.38;;;5.15;;
10212;SDS011;5150;51.400;6.692;2022-07-22T12:30:10;6.57;;;5.05;;
10212;SDS011;5150;51.400;6.692;2022-07-22T12:33:36;8.50;;;5.53;;
10212;SDS011;5150;51.400;6.692;2022-07-22T12:36:59;8.60;;;4.85;;
10212;SDS011;5150;51.400;6.692;2022-07-22T12:40:24;5.10;;;4.60;;
10212;SDS011;5150;51.400;6.692;2022-07-22T12:43:48;9.68;;;5.45;;
10212;SDS011;5150;51.400;6.692;2022-07-22T12:47:11;10.73;;;4.82;;
10212;SDS011;5150;51.400;6.692;2022-07-22T12:50:37;8.30;;;4.82;;
10212;SDS011;5150;51.400;6.692;2022-07-22T12:54:01;11.52;;;4.70;;
10212;SDS011;5150;51.400;6.692;2022-07-22T12:57:24;6.95;;;4.63;;
10212;SDS011;5150;51.400;6.692;2022-07-22T13:00:48;5.57;;;5.07;;
10212;SDS011;5150;51.400;6.692;2022-07-22T13:04:12;6.60;;;5.25;;
10212;SDS011;5150;51.400;6.692;2022-07-22T13:07:36;5.32;;;4.25;;
10212;SDS011;5150;51.400;6.692;2022-07-22T13:11:00;9.95;;;4.90;;
10212;SDS011;5150;51.400;6.692;2022-07-22T13:14:23;8.18;;;5.03;;
10212;SDS011;5150;51.400;6.692;2022-07-22T13:17:53;12.20;;;5.25;;
10212;SDS011;5150;51.400;6.692;2022-07-22T13:21:16;10.30;;;5.55;;
10212;SDS011;5150;51.400;6.692;2022-07-22T13:24:40;5.93;;;5.15;;
10212;SDS011;5150;51.400;6.692;2022-07-22T13:28:03;5.90;;;4.53;;
10212;SDS011;5150;51.400;6.692;2022-07-22T13:31:26;4.82;;;4.28;;
10212;SDS011;5150;51.400;6.692;2022-07-22T13:34:50;4.93;;;4.40;;
10212;SDS011;5150;51.400;6.692;2022-07-22T13:38:13;5.65;;;4.65;;
10212;SDS011;5150;51.400;6.692;2022-07-22T13:41:39;5.72;;;4.70;;
10212;SDS011;5150;51.400;6.692;2022-07-22T13:45:02;10.15;;;5.00;;
10212;SDS011;5150;51.400;6.692;2022-07-22T13:48:30;5.97;;;4.82;;
10212;SDS011;5150;51.400;6.692;2022-07-22T13:51:53;4.75;;;4.15;;
10212;SDS011;5150;51.400;6.692;2022-07-22T13:55:16;5.25;;;4.28;;
10212;SDS011;5150;51.400;6.692;2022-07-22T13:58:40;6.00;;;4.53;;
10212;SDS011;5150;51.400;6.692;2022-07-22T14:02:04;5.10;;;4.07;;
10212;SDS011;5150;51.400;6.692;2022-07-22T14:05:27;5.05;;;4.50;;
10212;SDS011;5150;51.400;6.692;2022-07-22T14:08:50;5.05;;;4.05;;
10212;SDS011;5150;51.400;6.692;2022-07-22T14:12:13;6.35;;;4.93;;
10212;SDS011;5150;51.400;6.692;2022-07-22T14:15:37;8.98;;;4.40;;
10212;SDS011;5150;51.400;6.692;2022-07-22T14:19:01;4.55;;;4.07;;
10212;SDS011;5150;51.400;6.692;2022-07-22T14:22:27;6.50;;;4.60;;
10212;SDS011;5150;51.400;6.692;2022-07-22T14:25:52;4.97;;;4.13;;
10212;SDS011;5150;51.400;6.692;2022-07-22T14:29:16;4.50;;;4.10;;
10212;SDS011;5150;51.400;6.692;2022-07-22T14:32:40;8.48;;;5.03;;
10212;SDS011;5150;51.400;6.692;2022-07-22T14:36:03;5.65;;;4.35;;
10212;SDS011;5150;51.400;6.692;2022-07-22T14:39:26;7.55;;;4.63;;
10212;SDS011;5150;51.400;6.692;2022-07-22T14:42:49;5.97;;;4.88;;
10212;SDS011;5150;51.400;6.692;2022-07-22T14:46:32;5.97;;;3.88;;
10212;SDS011;5150;51.400;6.692;2022-07-22T14:49:57;5.15;;;4.30;;
10212;SDS011;5150;51.400;6.692;2022-07-22T14:53:20;6.93;;;4.55;;
10212;SDS011;5150;51.400;6.692;2022-07-22T14:56:43;7.28;;;4.50;;
10212;SDS011;5150;51.400;6.692;2022-07-22T15:00:07;9.60;;;4.57;;
10212;SDS011;5150;51.400;6.692;2022-07-22T15:03:31;7.22;;;4.40;;
10212;SDS011;5150;51.400;6.692;2022-07-22T15:06:55;4.95;;;4.55;;
10212;SDS011;5150;51.400;6.692;2022-07-22T15:10:18;4.18;;;3.78;;
10212;SDS011;5150;51.400;6.692;2022-07-22T15:13:41;4.40;;;4.00;;
10212;SDS011;5150;51.400;6.692;2022-07-22T15:17:04;4.28;;;3.88;;
10212;SDS011;5150;51.400;6.692;2022-07-22T15:20:28;6.55;;;4.28;;
10212;SDS011;5150;51.400;6.692;2022-07-22T15:23:52;4.50;;;4.10;;
10212;SDS011;5150;51.400;6.692;2022-07-22T15:27:16;5.03;;;4.53;;
10212;SDS011;5150;51.400;6.692;2022-07-22T15:30:46;4.68;;;4.28;;
10212;SDS011;5150;51.400;6.692;2022-07-22T15:34:09;5.43;;;4.40;;
10212;SDS011;5150;51.400;6.692;2022-07-22T15:37:32;6.00;;;4.03;;
10212;SDS011;5150;51.400;6.692;2022-07-22T15:40:57;5.57;;;4.50;;
10212;SDS011;5150;51.400;6.692;2022-07-22T15:44:20;4.47;;;4.00;;
10212;SDS011;5150;51.400;6.692;2022-07-22T15:47:43;6.07;;;4.30;;
10212;SDS011;5150;51.400;6.692;2022-07-22T15:51:06;4.88;;;4.20;;
10212;SDS011;5150;51.400;6.692;2022-07-22T15:54:30;4.13;;;3.83;;
10212;SDS011;5150;51.400;6.692;2022-07-22T15:57:55;4.72;;;4.22;;
10212;SDS011;5150;51.400;6.692;2022-07-22T16:01:35;5.28;;;4.13;;
10212;SDS011;5150;51.400;6.692;2022-07-22T16:04:59;4.43;;;3.58;;
10212;SDS011;5150;51.400;6.692;2022-07-22T16:08:22;4.95;;;3.95;;
10212;SDS011;5150;51.400;6.692;2022-07-22T16:11:45;4.05;;;3.65;;
10212;SDS011;5150;51.400;6.692;2022-07-22T16:15:10;4.97;;;3.67;;
10212;SDS011;5150;51.400;6.692;2022-07-22T16:18:33;4.40;;;4.03;;
10212;SDS011;5150;51.400;6.692;2022-07-22T16:21:56;5.55;;;3.97;;
10212;SDS011;5150;51.400;6.692;2022-07-22T16:25:19;4.28;;;3.97;;
10212;SDS011;5150;51.400;6.692;2022-07-22T16:28:42;4.60;;;4.20;;
10212;SDS011;5150;51.400;6.692;2022-07-22T16:32:07;4.97;;;4.32;;
10212;SDS011;5150;51.400;6.692;2022-07-22T16:35:31;4.47;;;4.18;;
10212;SDS011;5150;51.400;6.692;2022-07-22T16:38:54;4.45;;;4.05;;
10212;SDS011;5150;51.400;6.692;2022-07-22T16:42:17;5.88;;;3.72;;
10212;SDS011;5150;51.400;6.692;2022-07-22T16:45:40;7.32;;;4.18;;
10212;SDS011;5150;51.400;6.692;2022-07-22T16:49:05;5.07;;;3.97;;
10212;SDS011;5150;51.400;6.692;2022-07-22T16:52:28;4.57;;;3.72;;
10212;SDS011;5150;51.400;6.692;2022-07-22T16:55:51;4.07;;;3.67;;
10212;SDS011;5150;51.400;6.692;2022-07-22T16:59:14;4.47;;;4.05;;
10212;SDS011;5150;51.400;6.692;2022-07-22T17:02:37;4.95;;;3.97;;
10212;SDS011;5150;51.400;6.692;2022-07-22T17:06:02;3.92;;;3.60;;
10212;SDS011;5150;51.400;6.692;2022-07-22T17:09:25;5.72;;;4.03;;
10212;SDS011;5150;51.400;6.692;2022-07-22T17:12:48;4.40;;;3.80;;
10212;SDS011;5150;51.400;6.692;2022-07-22T17:16:31;4.03;;;3.50;;
10212;SDS011;5150;51.400;6.692;2022-07-22T17:19:54;4.30;;;3.78;;
10212;SDS011;5150;51.400;6.692;2022-07-22T17:23:19;3.78;;;3.45;;
10212;SDS011;5150;51.400;6.692;2022-07-22T17:26:42;5.22;;;3.50;;
10212;SDS011;5150;51.400;6.692;2022-07-22T17:30:05;4.85;;;4.45;;
10212;SDS011;5150;51.400;6.692;2022-07-22T17:33:29;4.80;;;3.63;;
10212;SDS011;5150;51.400;6.692;2022-07-22T17:36:52;4.13;;;3.72;;
10212;SDS011;5150;51.400;6.692;2022-07-22T17:40:16;4.13;;;3.88;;
10212;SDS011;5150;51.400;6.692;2022-07-22T17:43:40;4.05;;;3.70;;
10212;SDS011;5150;51.400;6.692;2022-07-22T17:47:03;4.40;;;3.80;;
10212;SDS011;5150;51.400;6.692;2022-07-22T17:50:27;3.83;;;3.40;;
10212;SDS011;5150;51.400;6.692;2022-07-22T17:53:50;4.40;;;4.07;;
10212;SDS011;5150;51.400;6.692;2022-07-22T17:57:14;4.18;;;3.88;;
10212;SDS011;5150;51.400;6.692;2022-07-22T18:00:37;3.80;;;3.47;;
10212;SDS011;5150;51.400;6.692;2022-07-22T18:04:00;3.83;;;3.53;;
10212;SDS011;5150;51.400;6.692;2022-07-22T18:07:25;4.20;;;3.80;;
10212;SDS011;5150;51.400;6.692;2022-07-22T18:10:48;3.88;;;3.42;;
10212;SDS011;5150;51.400;6.692;2022-07-22T18:14:13;6.35;;;3.72;;
10212;SDS011;5150;51.400;6.692;2022-07-22T18:17:36;4.30;;;3.90;;
10212;SDS011;5150;51.400;6.692;2022-07-22T18:20:59;4.13;;;3.78;;
10212;SDS011;5150;51.400;6.692;2022-07-22T18:24:22;5.85;;;3.60;;
10212;SDS011;5150;51.400;6.692;2022-07-22T18:27:45;3.38;;;3.08;;
10212;SDS011;5150;51.400;6.692;2022-07-22T18:31:10;8.85;;;3.97;;
10212;SDS011;5150;51.400;6.692;2022-07-22T18:34:33;3.03;;;2.83;;
10212;SDS011;5150;51.400;6.692;2022-07-22T18:37:56;6.95;;;3.45;;
10212;SDS011;5150;51.400;6.692;2022-07-22T18:41:20;4.57;;;3.13;;
10212;SDS011;5150;51.400;6.692;2022-07-22T18:44:43;3.30;;;3.03;;
10212;SDS011;5150;51.400;6.692;2022-07-22T18:48:07;3.78;;;3.47;;
10212;SDS011;5150;51.400;6.692;2022-07-22T18:51:30;4.03;;;3.40;;
10212;SDS011;5150;51.400;6.692;2022-07-22T18:54:54;6.55;;;3.65;;
10212;SDS011;5150;51.400;6.692;2022-07-22T18:58:18;4.40;;;2.83;;
10212;SDS011;5150;51.400;6.692;2022-07-22T19:01:41;3.55;;;3.25;;
10212;SDS011;5150;51.400;6.692;2022-07-22T19:05:05;4.05;;;3.75;;
10212;SDS011;5150;51.400;6.692;2022-07-22T19:08:29;3.85;;;3.55;;
10212;SDS011;5150;51.400;6.692;2022-07-22T19:11:52;3.60;;;3.30;;
10212;SDS011;5150;51.400;6.692;2022-07-22T19:15:15;6.60;;;4.15;;
10212;SDS011;5150;51.400;6.692;2022-07-22T19:18:38;3.40;;;3.20;;
10212;SDS011;5150;51.400;6.692;2022-07-22T19:22:03;3.15;;;2.95;;
10212;SDS011;5150;51.400;6.692;2022-07-22T19:25:26;3.60;;;3.30;;
10212;SDS011;5150;51.400;6.692;2022-07-22T19:28:49;5.25;;;2.97;;
10212;SDS011;5150;51.400;6.692;2022-07-22T19:32:12;3.90;;;3.35;;
10212;SDS011;5150;51.400;6.692;2022-07-22T19:35:35;3.42;;;3.13;;
10212;SDS011;5150;51.400;6.692;2022-07-22T19:38:59;3.70;;;3.40;;
10212;SDS011;5150;51.400;6.692;2022-07-22T19:42:22;4.55;;;3.88;;
10212;SDS011;5150;51.400;6.692;2022-07-22T19:45:45;3.92;;;3.55;;
10212;SDS011;5150;51.400;6.692;2022-07-22T19:49:09;3.92;;;3.55;;
10212;SDS011;5150;51.400;6.692;2022-07-22T19:52:32;5.18;;;3.10;;
10212;SDS011;5150;51.400;6.692;2022-07-22T19:55:57;5.20;;;2.97;;
10212;SDS011;5150;51.400;6.692;2022-07-22T19:59:20;5.53;;;3.53;;
10212;SDS011;5150;51.400;6.692;2022-07-22T20:02:43;4.18;;;3.38;;
10212;SDS011;5150;51.400;6.692;2022-07-22T20:06:07;3.03;;;2.78;;
10212;SDS011;5150;51.400;6.692;2022-07-22T20:09:30;3.80;;;3.22;;
10212;SDS011;5150;51.400;6.692;2022-07-22T20:12:54;6.70;;;3.40;;
10212;SDS011;5150;51.400;6.692;2022-07-22T20:16:18;3.38;;;3.08;;
10212;SDS011;5150;51.400;6.692;2022-07-22T20:19:41;2.97;;;2.78;;
10212;SDS011;5150;51.400;6.692;2022-07-22T20:23:04;3.80;;;3.13;;
10212;SDS011;5150;51.400;6.692;2022-07-22T20:26:27;7.50;;;3.60;;
10212;SDS011;5150;51.400;6.692;2022-07-22T20:29:52;3.97;;;3.22;;
10212;SDS011;5150;51.400;6.692;2022-07-22T20:33:15;6.07;;;3.30;;
10212;SDS011;5150;51.400;6.692;2022-07-22T20:36:38;4.68;;;3.10;;
10212;SDS011;5150;51.400;6.692;2022-07-22T20:40:01;3.97;;;3.38;;
10212;SDS011;5150;51.400;6.692;2022-07-22T20:43:24;3.92;;;3.25;;
10212;SDS011;5150;51.400;6.692;2022-07-22T20:46:48;5.70;;;3.97;;
10212;SDS011;5150;51.400;6.692;2022-07-22T20:50:11;4.68;;;3.20;;
10212;SDS011;5150;51.400;6.692;2022-07-22T20:53:34;3.45;;;3.15;;
10212;SDS011;5150;51.400;6.692;2022-07-22T20:56:57;4.88;;;3.45;;
10212;SDS011;5150;51.400;6.692;2022-07-22T21:00:21;4.20;;;3.05;;
10212;SDS011;5150;51.400;6.692;2022-07-22T21:03:45;3.85;;;3.45;;